Time;durP1;ratioP1;P1;durP2;ratioP2;P2;SDS_P1;SDS_P2;PMS_P1;PMS_P2;Temp;Humidity;BMP_temperature;BMP_pressure;BME280_temperature;BME280_humidity;BME280_pressure;Samples;Min_cycle;Max_cycle;Signal;HPM_P1;HPM_P2
2022/01/22 00:01:09;;;;;;;30.98;10.88;;;4.00;99.90;;;;;;4854557;29;20061;-64
2022/01/22 00:03:34;;;;;;;31.05;10.60;;;4.10;99.90;;;;;;4859516;29;20056;-63
2022/01/22 00:06:00;;;;;;;26.52;10.52;;;4.00;99.90;;;;;;4864163;29;20039;-64
2022/01/22 00:08:25;;;;;;;32.00;10.48;;;4.10;99.90;;;;;;4849259;29;20041;-64
2022/01/22 00:10:52;;;;;;;23.00;9.68;;;4.10;99.90;;;;;;4864000;29;20040;-64
2022/01/22 00:15:43;;;;;;;26.45;9.18;;;4.20;99.90;;;;;;4863613;29;20029;-64
2022/01/22 00:18:08;;;;;;;25.42;8.80;;;4.20;99.90;;;;;;4859401;29;20105;-63
2022/01/22 00:20:34;;;;;;;26.30;8.95;;;4.80;99.90;;;;;;4868269;29;20043;-64
2022/01/22 00:22:59;;;;;;;25.73;8.85;;;4.20;99.90;;;;;;4865615;29;20033;-64
2022/01/22 00:25:25;;;;;;;27.23;9.20;;;4.20;99.90;;;;;;4865928;29;20041;-64
2022/01/22 00:27:51;;;;;;;24.88;8.60;;;4.20;99.90;;;;;;4857904;29;20037;-64
2022/01/22 00:30:16;;;;;;;26.58;8.27;;;4.20;99.90;;;;;;4848153;29;20051;-63
2022/01/22 00:32:42;;;;;;;27.80;8.43;;;4.30;99.90;;;;;;4843870;29;20069;-64
2022/01/22 00:35:08;;;;;;;25.17;8.43;;;4.30;99.90;;;;;;4862410;29;20072;-63
2022/01/22 00:37:34;;;;;;;23.88;8.30;;;4.30;99.90;;;;;;4843766;29;20473;-63
2022/01/22 00:39:59;;;;;;;25.77;8.55;;;4.30;99.90;;;;;;4842975;29;20037;-64
2022/01/22 00:42:25;;;;;;;25.35;8.25;;;4.30;99.90;;;;;;4839572;29;20025;-63
2022/01/22 00:44:52;;;;;;;25.40;8.52;;;4.40;99.90;;;;;;4843521;29;20032;-64
2022/01/22 00:47:17;;;;;;;21.63;7.90;;;4.30;99.90;;;;;;4844774;29;20041;-63
2022/01/22 00:49:43;;;;;;;30.15;8.15;;;4.30;99.90;;;;;;4863603;29;20128;-63
2022/01/22 00:52:08;;;;;;;23.33;8.18;;;4.40;99.90;;;;;;4843384;29;20064;-63
2022/01/22 00:54:34;;;;;;;24.40;8.27;;;4.30;99.90;;;;;;4845107;29;20040;-64
2022/01/22 00:56:59;;;;;;;19.02;7.10;;;4.40;99.90;;;;;;4838360;29;20025;-63
2022/01/22 00:59:25;;;;;;;21.90;7.35;;;4.30;99.90;;;;;;4850288;29;20045;-63
2022/01/22 01:01:50;;;;;;;27.08;7.57;;;4.40;99.90;;;;;;4845841;29;20037;-64
2022/01/22 01:04:16;;;;;;;27.35;8.25;;;4.30;99.90;;;;;;4843267;29;20030;-63
2022/01/22 01:06:41;;;;;;;26.60;8.80;;;4.30;99.90;;;;;;4862105;29;20346;-64
2022/01/22 01:09:07;;;;;;;28.08;8.57;;;4.30;99.90;;;;;;4844535;29;20099;-64
2022/01/22 01:11:37;;;;;;;21.95;7.85;;;4.40;99.90;;;;;;4840079;29;20025;-64
2022/01/22 01:14:06;;;;;;;22.27;8.10;;;4.40;99.90;;;;;;4843436;29;20037;-64
2022/01/22 01:32:55;;;;;;;27.55;9.13;;;4.40;99.90;;;;;;4847788;29;20470;-64
2022/01/22 01:35:21;;;;;;;25.02;8.25;;;4.40;99.90;;;;;;4855568;29;20041;-64
2022/01/22 01:37:47;;;;;;;21.83;7.75;;;4.40;99.90;;;;;;4842704;29;20871;-64
2022/01/22 01:40:17;;;;;;;27.83;8.52;;;4.40;99.90;;;;;;4848217;29;20029;-64
2022/01/22 01:45:27;;;;;;;23.38;7.75;;;4.00;99.90;;;;;;4850155;29;20165;-64
2022/01/22 01:47:53;;;;;;;27.15;8.70;;;4.30;99.90;;;;;;4862734;29;20033;-64
2022/01/22 01:50:19;;;;;;;24.08;7.78;;;4.30;99.90;;;;;;4849803;29;20090;-64
2022/01/22 01:52:51;;;;;;;24.00;8.00;;;4.30;99.90;;;;;;4845251;29;20046;-64
2022/01/22 01:55:33;;;;;;;21.23;7.53;;;4.30;99.90;;;;;;4849010;29;20041;-64
2022/01/22 01:58:00;;;;;;;18.42;6.88;;;4.30;99.90;;;;;;4850767;29;20331;-64
2022/01/22 02:00:26;;;;;;;16.48;6.88;;;4.20;99.90;;;;;;4845517;29;20497;-64
2022/01/22 02:02:55;;;;;;;20.38;6.25;;;3.90;99.90;;;;;;4843757;29;20459;-64
2022/01/22 02:05:23;;;;;;;13.30;5.78;;;4.20;99.90;;;;;;4842028;29;20030;-64
2022/01/22 02:07:55;;;;;;;17.10;5.82;;;4.10;99.90;;;;;;4842655;29;20796;-64
2022/01/22 02:10:27;;;;;;;13.45;5.53;;;4.40;99.90;;;;;;4838445;29;20036;-64
2022/01/22 02:23:49;;;;;;;8.52;3.83;;;4.00;99.90;;;;;;4841782;29;20787;-64
2022/01/22 02:26:14;;;;;;;10.40;3.60;;;3.90;99.90;;;;;;4851850;29;20035;-63
2022/01/22 02:28:48;;;;;;;6.15;2.63;;;3.40;99.90;;;;;;4841029;29;20025;-64
2022/01/22 02:31:24;;;;;;;6.90;3.15;;;3.80;99.90;;;;;;4846405;29;20071;-64
2022/01/22 02:39:10;;;;;;;11.98;4.65;;;3.70;99.90;;;;;;4851762;29;20845;-64
2022/01/22 02:41:35;;;;;;;15.60;4.60;;;3.60;99.90;;;;;;4845541;29;20558;-64
2022/01/22 02:44:01;;;;;;;9.32;4.13;;;3.50;99.90;;;;;;4850167;29;20104;-64
2022/01/22 02:46:27;;;;;;;13.10;4.60;;;3.40;99.90;;;;;;4842403;29;20148;-64
2022/01/22 02:48:54;;;;;;;11.98;4.03;;;3.40;99.90;;;;;;4836841;29;20809;-64
2022/01/22 02:51:20;;;;;;;11.82;4.70;;;3.40;99.90;;;;;;4841233;29;20057;-64
2022/01/22 02:53:49;;;;;;;11.27;4.43;;;3.40;99.90;;;;;;4845207;29;20033;-64
2022/01/22 02:56:14;;;;;;;10.63;4.07;;;3.30;99.90;;;;;;4838784;29;20406;-64
2022/01/22 02:58:40;;;;;;;11.10;4.63;;;3.30;99.90;;;;;;4848328;29;20029;-64
2022/01/22 03:01:07;;;;;;;11.93;5.00;;;3.30;99.90;;;;;;4844378;29;20033;-64
2022/01/22 03:03:33;;;;;;;11.95;5.00;;;3.30;99.90;;;;;;4848974;29;20044;-63
2022/01/22 03:06:01;;;;;;;13.55;5.07;;;3.30;99.90;;;;;;4842990;29;20030;-64
2022/01/22 03:08:28;;;;;;;11.70;4.47;;;3.40;99.90;;;;;;4847427;29;20528;-64
2022/01/22 03:10:54;;;;;;;15.85;5.38;;;3.50;99.90;;;;;;4842659;29;20582;-64
2022/01/22 03:19:00;;;;;;;12.27;5.10;;;3.50;99.90;;;;;;4839318;29;20041;-64
2022/01/22 03:21:36;;;;;;;12.93;4.88;;;3.50;99.90;;;;;;4847417;29;20040;-64
2022/01/22 03:29:33;;;;;;;10.82;4.70;;;3.40;99.90;;;;;;4850397;29;20048;-64
2022/01/22 03:32:00;;;;;;;11.35;4.63;;;3.30;99.90;;;;;;4838604;29;20433;-64
2022/01/22 03:34:28;;;;;;;20.25;4.82;;;3.30;99.90;;;;;;4851422;29;20040;-64
2022/01/22 03:36:53;;;;;;;11.00;4.63;;;3.30;99.90;;;;;;4860300;29;20041;-64
2022/01/22 03:39:19;;;;;;;14.55;4.72;;;3.30;99.90;;;;;;4846182;29;20041;-64
2022/01/22 03:41:44;;;;;;;9.32;4.07;;;3.20;99.90;;;;;;4847581;29;20120;-64
2022/01/22 03:44:11;;;;;;;12.93;4.05;;;3.20;99.90;;;;;;4841037;29;20022;-64
2022/01/22 03:46:38;;;;;;;9.65;3.97;;;3.20;99.90;;;;;;4839102;29;20036;-64
2022/01/22 03:49:04;;;;;;;15.90;4.53;;;3.20;99.90;;;;;;4836801;29;20032;-64
2022/01/22 03:51:30;;;;;;;17.17;4.00;;;3.20;99.90;;;;;;4860163;29;20390;-64
2022/01/22 03:53:56;;;;;;;15.05;4.45;;;3.20;99.90;;;;;;4843350;29;20029;-64
2022/01/22 03:56:24;;;;;;;14.20;4.47;;;3.20;99.90;;;;;;4854089;29;20045;-64
2022/01/22 03:59:21;;;;;;;8.93;3.72;;;3.30;99.90;;;;;;4852263;29;20710;-64
2022/01/22 04:04:52;;;;;;;11.55;4.00;;;3.10;99.90;;;;;;4839145;29;20059;-64
2022/01/22 04:10:04;;;;;;;16.60;4.43;;;3.00;99.90;;;;;;4841743;29;20025;-64
2022/01/22 04:12:55;;;;;;;15.05;4.13;;;3.10;99.90;;;;;;4841194;29;20112;-64
2022/01/22 04:15:22;;;;;;;12.73;4.20;;;3.00;99.90;;;;;;4848203;29;20036;-64
2022/01/22 04:26:53;;;;;;;15.35;5.20;;;2.80;99.90;;;;;;4839959;29;20913;-64
2022/01/22 04:28:48;;;;;;;17.65;5.22;;;2.60;99.90;;;;;;4857854;29;20045;-64
2022/01/22 04:31:14;;;;;;;15.52;5.18;;;2.60;99.90;;;;;;4852788;29;20041;-64
2022/01/22 04:33:40;;;;;;;15.18;4.70;;;2.40;99.90;;;;;;4864426;29;20029;-64
2022/01/22 04:36:05;;;;;;;15.95;5.25;;;2.20;99.90;;;;;;4859415;29;20505;-64
2022/01/22 04:38:31;;;;;;;16.23;5.13;;;2.20;99.90;;;;;;4845002;29;20041;-64
2022/01/22 04:40:59;;;;;;;19.70;5.07;;;2.20;99.90;;;;;;4840444;29;20029;-64
2022/01/22 04:43:24;;;;;;;21.00;5.72;;;1.70;99.90;;;;;;4859783;29;20794;-64
2022/01/22 04:57:09;;;;;;;14.93;5.50;;;1.70;99.90;;;;;;4857387;29;20137;-64
2022/01/22 04:59:35;;;;;;;19.08;5.60;;;1.60;99.90;;;;;;4846853;29;20490;-64
2022/01/22 05:02:00;;;;;;;23.48;6.10;;;1.50;99.90;;;;;;4846997;29;20136;-64
2022/01/22 05:04:45;;;;;;;25.77;6.53;;;1.40;99.90;;;;;;4857878;29;20157;-63
2022/01/22 05:07:26;;;;;;;15.65;5.38;;;1.20;99.90;;;;;;4845050;29;20045;-64
2022/01/22 05:10:16;;;;;;;20.33;5.80;;;;;;;;;;4855246;29;20073;-64
2022/01/22 05:12:42;;;;;;;18.00;5.75;;;1.40;99.90;;;;;;4855622;29;20037;-64
2022/01/22 05:15:08;;;;;;;15.60;4.95;;;1.40;99.90;;;;;;4863899;29;20041;-64
2022/01/22 05:17:37;;;;;;;17.50;5.53;;;1.30;99.90;;;;;;4847321;29;20040;-64
2022/01/22 05:20:15;;;;;;;21.30;5.65;;;1.30;99.90;;;;;;4840250;29;20881;-64
2022/01/22 05:22:54;;;;;;;13.13;5.32;;;1.30;99.90;;;;;;4851092;29;20052;-64
2022/01/22 05:25:25;;;;;;;16.05;5.40;;;1.30;99.90;;;;;;4849760;29;20052;-64
2022/01/22 05:39:16;;;;;;;21.02;5.05;;;1.20;99.90;;;;;;4835286;29;20088;-64
2022/01/22 05:41:43;;;;;;;19.45;5.25;;;1.20;99.90;;;;;;4857767;29;20040;-64
2022/01/22 05:44:08;;;;;;;15.45;4.70;;;1.20;99.90;;;;;;4850521;29;20592;-64
2022/01/22 05:46:33;;;;;;;16.98;4.95;;;1.10;99.90;;;;;;4860601;29;20044;-64
2022/01/22 05:48:59;;;;;;;24.63;4.90;;;;;;;;;;4854535;29;20025;-64
2022/01/22 05:51:25;;;;;;;14.73;4.80;;;1.10;99.90;;;;;;4850764;29;20487;-64
2022/01/22 05:59:36;;;;;;;26.98;5.30;;;1.20;99.90;;;;;;4850944;29;20097;-64
2022/01/22 06:02:02;;;;;;;17.67;5.30;;;1.20;99.90;;;;;;4842192;29;20558;-64
2022/01/22 06:04:28;;;;;;;14.60;5.53;;;1.40;99.90;;;;;;4840847;29;20048;-64
2022/01/22 06:06:59;;;;;;;21.23;5.43;;;1.50;99.90;;;;;;4850381;29;20044;-64
2022/01/22 06:09:26;;;;;;;19.10;5.10;;;1.50;99.90;;;;;;4844592;29;20431;-64
2022/01/22 06:11:56;;;;;;;18.83;5.90;;;1.50;99.90;;;;;;4861569;29;20036;-64
2022/01/22 06:14:33;;;;;;;16.17;5.32;;;2.00;99.90;;;;;;4850938;29;20036;-64
2022/01/22 06:16:59;;;;;;;29.40;6.50;;;;;;;;;;4843988;29;20036;-64
2022/01/22 06:19:31;;;;;;;22.52;5.25;;;1.50;99.90;;;;;;4842781;29;20890;-64
2022/01/22 06:21:57;;;;;;;17.08;5.35;;;1.70;99.90;;;;;;4847334;29;20036;-63
2022/01/22 06:24:23;;;;;;;14.55;5.38;;;;;;;;;;4849752;29;20029;-64
2022/01/22 06:26:50;;;;;;;19.65;5.95;;;1.80;99.90;;;;;;4849688;29;20021;-64
2022/01/22 06:29:16;;;;;;;18.20;5.43;;;;;;;;;;4849819;29;20041;-64
2022/01/22 06:31:42;;;;;;;19.90;5.25;;;1.90;99.90;;;;;;4850747;29;20502;-64
2022/01/22 06:34:08;;;;;;;20.85;5.45;;;2.10;99.90;;;;;;4851955;29;20061;-64
2022/01/22 06:36:38;;;;;;;16.75;5.18;;;;;;;;;;4849186;29;20079;-64
2022/01/22 06:39:13;;;;;;;16.58;5.20;;;;;;;;;;4847528;29;20417;-63
2022/01/22 06:41:58;;;;;;;22.50;6.13;;;1.70;99.90;;;;;;4860290;29;20845;-64
2022/01/22 06:44:43;;;;;;;19.50;5.15;;;1.10;99.90;;;;;;4870864;29;20044;-64
2022/01/22 06:47:27;;;;;;;24.70;5.78;;;1.00;99.90;;;;;;4861804;29;20169;-64
2022/01/22 06:49:52;;;;;;;19.30;5.40;;;1.50;99.90;;;;;;4861532;29;20148;-64
2022/01/22 06:52:38;;;;;;;18.17;5.47;;;1.50;99.90;;;;;;4871999;29;20148;-64
2022/01/22 06:55:06;;;;;;;24.45;6.47;;;1.40;99.90;;;;;;4843758;29;20068;-64
2022/01/22 06:57:32;;;;;;;17.77;5.22;;;1.40;99.90;;;;;;4843229;29;20060;-64
2022/01/22 06:59:58;;;;;;;16.33;5.18;;;1.30;99.90;;;;;;4844598;29;20029;-64
2022/01/22 07:02:24;;;;;;;19.67;5.95;;;1.30;99.90;;;;;;4849257;29;20033;-64
2022/01/22 07:04:50;;;;;;;19.10;6.25;;;1.30;99.90;;;;;;4851920;29;20742;-64
2022/01/22 07:07:42;;;;;;;16.90;6.18;;;1.30;99.90;;;;;;4845463;29;20048;-64
2022/01/22 07:10:08;;;;;;;23.98;6.78;;;1.30;99.90;;;;;;4843686;29;20411;-64
2022/01/22 07:12:34;;;;;;;18.25;6.75;;;1.30;99.90;;;;;;4850288;29;20033;-63
2022/01/22 07:14:59;;;;;;;22.50;6.90;;;1.40;99.90;;;;;;4821835;29;20026;-63
2022/01/22 07:17:25;;;;;;;22.58;6.82;;;1.40;99.90;;;;;;4853592;29;20779;-65
2022/01/22 07:19:54;;;;;;;14.15;6.15;;;1.40;99.90;;;;;;4842966;29;20029;-64
2022/01/22 07:25:01;;;;;;;35.70;9.05;;;1.50;99.90;;;;;;4847278;29;20030;-64
2022/01/22 07:27:27;;;;;;;30.10;11.00;;;1.60;99.90;;;;;;4849958;29;20045;-64
2022/01/22 07:29:52;;;;;;;28.05;8.70;;;1.70;99.90;;;;;;4857955;29;20086;-64
2022/01/22 07:32:32;;;;;;;41.90;13.13;;;1.70;99.90;;;;;;4847005;29;20069;-64
2022/01/22 07:34:57;;;;;;;25.00;9.23;;;1.70;99.90;;;;;;4850244;29;20044;-64
2022/01/22 07:37:23;;;;;;;22.02;7.88;;;1.70;99.90;;;;;;4847149;29;20037;-64
2022/01/22 07:39:50;;;;;;;26.15;7.68;;;1.80;99.90;;;;;;4838314;29;20476;-64
2022/01/22 07:42:50;;;;;;;28.52;7.65;;;1.90;99.90;;;;;;4849515;29;20083;-64
2022/01/22 07:45:35;;;;;;;20.85;6.85;;;1.90;99.90;;;;;;4872132;29;20048;-64
2022/01/22 07:48:08;;;;;;;25.45;7.10;;;1.90;99.90;;;;;;4855366;29;20037;-64
2022/01/22 07:50:59;;;;;;;17.63;7.82;;;2.00;99.90;;;;;;4847298;29;20037;-63
2022/01/22 07:53:25;;;;;;;19.38;6.47;;;2.10;99.90;;;;;;4846837;29;20076;-62
2022/01/22 07:55:52;;;;;;;27.42;7.53;;;2.20;99.90;;;;;;4850859;29;20038;-64
2022/01/22 07:58:17;;;;;;;21.05;7.20;;;2.20;99.90;;;;;;4847072;29;20123;-64
2022/01/22 08:00:43;;;;;;;18.98;7.47;;;2.30;99.90;;;;;;4853502;29;20033;-64
2022/01/22 08:03:09;;;;;;;21.50;7.40;;;2.30;99.90;;;;;;4855343;29;20029;-64
2022/01/22 08:05:53;;;;;;;18.58;7.07;;;2.30;99.90;;;;;;4863243;29;20125;-64
2022/01/22 08:08:47;;;;;;;16.88;7.28;;;2.40;99.90;;;;;;4822240;29;20121;-64
2022/01/22 08:11:31;;;;;;;19.40;7.32;;;2.50;99.90;;;;;;4867149;29;20168;-63
2022/01/22 08:13:57;;;;;;;26.35;10.23;;;2.50;99.90;;;;;;4867051;29;20513;-64
2022/01/22 08:16:22;;;;;;;28.13;7.68;;;2.60;99.90;;;;;;4848080;29;20037;-64
2022/01/22 08:18:48;;;;;;;24.13;7.50;;;2.80;99.90;;;;;;4840082;29;20033;-64
2022/01/22 08:21:14;;;;;;;24.70;7.15;;;3.00;99.90;;;;;;4853113;29;20417;-64
2022/01/22 08:23:58;;;;;;;21.20;7.13;;;3.10;99.90;;;;;;4852331;29;20040;-64
2022/01/22 08:27:04;;;;;;;18.48;6.65;;;3.10;99.90;;;;;;4852340;29;20036;-64
2022/01/22 08:29:26;;;;;;;12.60;6.03;;;3.10;99.90;;;;;;4866608;29;20049;-63
2022/01/22 08:32:04;;;;;;;13.68;6.30;;;3.10;99.90;;;;;;4849513;29;20561;-63
2022/01/22 08:37:16;;;;;;;19.40;7.50;;;3.20;99.90;;;;;;4847286;29;20045;-64
2022/01/22 08:39:43;;;;;;;21.15;7.10;;;3.30;99.90;;;;;;4831349;29;20040;-64
2022/01/22 08:42:08;;;;;;;24.45;7.43;;;3.40;99.90;;;;;;4846005;29;20638;-64
2022/01/22 08:44:34;;;;;;;27.85;8.18;;;3.50;99.90;;;;;;4848238;29;20040;-64
2022/01/22 08:47:01;;;;;;;17.73;7.72;;;3.50;99.90;;;;;;4843499;29;20041;-64
2022/01/22 08:49:27;;;;;;;29.10;8.63;;;3.50;99.90;;;;;;4849678;29;20056;-64
2022/01/22 08:52:11;;;;;;;26.00;8.50;;;3.40;99.90;;;;;;4847796;29;20037;-64
2022/01/22 08:54:36;;;;;;;25.55;8.35;;;3.40;99.90;;;;;;4867768;29;20060;-63
2022/01/22 08:57:02;;;;;;;24.27;8.45;;;3.40;99.90;;;;;;4845081;29;20180;-65
2022/01/22 08:59:28;;;;;;;23.50;7.57;;;3.20;99.90;;;;;;4850115;29;20084;-68
2022/01/22 09:01:57;;;;;;;24.85;7.63;;;3.10;99.90;;;;;;4844540;29;20068;-68
2022/01/22 09:04:46;;;;;;;25.40;8.00;;;3.20;99.90;;;;;;4847366;29;20037;-69
2022/01/22 09:07:30;;;;;;;20.35;8.07;;;3.20;99.90;;;;;;4870743;29;20123;-69
2022/01/22 09:09:56;;;;;;;26.40;9.18;;;3.20;99.90;;;;;;4861985;29;20056;-69
2022/01/22 09:12:53;;;;;;;22.63;8.30;;;3.30;99.90;;;;;;4831677;29;20065;-69
2022/01/22 09:15:22;;;;;;;26.40;9.10;;;3.50;99.90;;;;;;4848628;29;20072;-69
2022/01/22 09:17:48;;;;;;;24.75;8.73;;;3.60;99.90;;;;;;4843480;29;20139;-69
2022/01/22 09:20:30;;;;;;;22.00;7.88;;;3.70;99.90;;;;;;4848183;29;20124;-69
2022/01/22 09:22:56;;;;;;;16.20;7.47;;;3.70;99.90;;;;;;4840875;29;20041;-69
2022/01/22 09:25:21;;;;;;;16.65;7.00;;;3.80;99.90;;;;;;4865184;29;20396;-69
2022/01/22 09:27:47;;;;;;;15.80;7.35;;;3.90;99.90;;;;;;4851264;29;20047;-70
2022/01/22 09:30:13;;;;;;;19.52;7.25;;;3.90;99.90;;;;;;4851868;29;20029;-68
2022/01/22 09:32:38;;;;;;;17.80;7.50;;;3.90;99.90;;;;;;4852675;29;20507;-68
2022/01/22 09:35:35;;;;;;;18.70;7.13;;;3.90;99.90;;;;;;4850638;29;20045;-68
2022/01/22 09:38:39;;;;;;;22.70;8.30;;;3.90;99.90;;;;;;4815908;29;20037;-68
2022/01/22 09:41:13;;;;;;;15.27;6.23;;;4.00;99.90;;;;;;4817041;29;20481;-68
2022/01/22 09:43:53;;;;;;;16.67;6.78;;;4.10;99.90;;;;;;4829007;29;20293;-68
2022/01/22 09:46:43;;;;;;;22.38;5.95;;;4.20;99.90;;;;;;4842951;29;20029;-69
2022/01/22 09:49:35;;;;;;;12.20;5.55;;;4.20;99.90;;;;;;4846645;29;20040;-69
2022/01/22 09:52:17;;;;;;;19.33;4.50;;;4.30;99.90;;;;;;4859017;29;20033;-69
2022/01/22 09:55:16;;;;;;;11.05;4.63;;;4.40;99.90;;;;;;4847336;29;20037;-69
2022/01/22 09:57:55;;;;;;;21.48;5.07;;;4.40;99.90;;;;;;4864365;29;20049;-69
2022/01/22 10:00:47;;;;;;;14.25;4.75;;;4.30;99.90;;;;;;4850055;29;20029;-69
2022/01/22 10:03:23;;;;;;;11.18;4.25;;;4.50;99.90;;;;;;4848521;29;20032;-69
2022/01/22 10:06:21;;;;;;;13.52;4.80;;;4.60;99.90;;;;;;4836229;29;20766;-69
2022/01/22 10:09:06;;;;;;;8.77;4.05;;;4.70;99.90;;;;;;4864325;29;20056;-69
2022/01/22 10:11:52;;;;;;;13.38;4.60;;;4.90;99.90;;;;;;4863983;29;20045;-69
2022/01/22 10:14:37;;;;;;;10.48;4.15;;;4.90;99.90;;;;;;4867064;29;20190;-69
2022/01/22 10:17:03;;;;;;;11.52;4.93;;;5.00;99.90;;;;;;4844207;29;20498;-69
2022/01/22 10:19:28;;;;;;;10.82;5.00;;;4.80;99.90;;;;;;4866068;29;20119;-69
2022/01/22 10:21:57;;;;;;;11.27;4.70;;;4.70;99.90;;;;;;4842566;29;20069;-69
2022/01/22 10:24:23;;;;;;;8.82;3.78;;;4.70;99.90;;;;;;4861255;29;20025;-69
2022/01/22 10:26:48;;;;;;;11.85;3.38;;;4.60;99.90;;;;;;4860991;29;20040;-69
2022/01/22 10:29:14;;;;;;;13.10;5.65;;;4.50;99.90;;;;;;4849388;29;20124;-69
2022/01/22 10:31:39;;;;;;;10.57;4.45;;;4.60;99.90;;;;;;4866632;29;20049;-69
2022/01/22 10:34:23;;;;;;;7.30;3.65;;;4.60;99.90;;;;;;4869698;29;20112;-69
2022/01/22 10:37:07;;;;;;;12.38;3.72;;;4.60;99.90;;;;;;4862278;29;20052;-69
2022/01/22 10:39:43;;;;;;;11.85;5.20;;;4.80;99.90;;;;;;4844486;29;20406;-69
2022/01/22 10:42:08;;;;;;;10.38;5.38;;;4.80;99.90;;;;;;4841871;29;20040;-68
2022/01/22 10:44:34;;;;;;;12.30;4.20;;;4.90;99.90;;;;;;4865327;29;20037;-69
2022/01/22 10:47:03;;;;;;;34.85;12.63;;;4.80;99.90;;;;;;4849851;29;20040;-69
2022/01/22 10:49:29;;;;;;;28.67;11.48;;;4.90;99.90;;;;;;4868828;29;20033;-69
2022/01/22 10:51:55;;;;;;;25.63;10.13;;;4.90;99.90;;;;;;4862430;29;20039;-69
2022/01/22 10:54:20;;;;;;;53.83;20.45;;;5.00;99.90;;;;;;4861650;29;20037;-69
2022/01/22 10:56:46;;;;;;;31.00;12.18;;;5.10;99.90;;;;;;4864698;29;20118;-69
2022/01/22 10:59:11;;;;;;;12.32;4.90;;;5.10;99.90;;;;;;4864266;29;20064;-69
2022/01/22 11:01:37;;;;;;;10.65;3.80;;;5.30;99.90;;;;;;4861208;29;20029;-68
2022/01/22 11:04:02;;;;;;;21.10;8.80;;;5.30;99.90;;;;;;4847342;29;20017;-69
2022/01/22 11:06:28;;;;;;;10.43;4.78;;;5.30;99.90;;;;;;4862204;29;20048;-69
2022/01/22 11:08:53;;;;;;;10.25;4.43;;;5.40;99.90;;;;;;4863507;29;20052;-69
2022/01/22 11:11:19;;;;;;;16.35;6.55;;;5.30;99.90;;;;;;4849893;29;20045;-69
2022/01/22 11:13:44;;;;;;;9.63;4.10;;;5.10;99.90;;;;;;4865489;29;20044;-69
2022/01/22 11:16:10;;;;;;;11.48;4.22;;;5.00;99.90;;;;;;4843036;29;20041;-69
2022/01/22 11:18:35;;;;;;;12.75;4.18;;;4.80;99.90;;;;;;4849060;29;20041;-68
2022/01/22 11:21:01;;;;;;;8.25;4.05;;;4.80;99.90;;;;;;4859164;29;20178;-69
2022/01/22 11:23:26;;;;;;;11.38;4.93;;;4.80;99.90;;;;;;4866125;29;20044;-69
2022/01/22 11:25:52;;;;;;;14.85;5.60;;;4.80;99.90;;;;;;4860587;29;20092;-69
2022/01/22 11:28:17;;;;;;;11.27;3.80;;;4.70;99.90;;;;;;4847848;29;20032;-69
2022/01/22 11:30:43;;;;;;;12.73;4.43;;;4.80;99.90;;;;;;4864212;29;20044;-69
2022/01/22 11:33:09;;;;;;;7.55;3.30;;;4.80;99.90;;;;;;4865964;29;20403;-69
2022/01/22 11:35:35;;;;;;;10.35;5.05;;;4.80;99.90;;;;;;4867339;29;20044;-68
2022/01/22 11:38:01;;;;;;;10.90;4.15;;;4.70;99.90;;;;;;4849196;29;20047;-69
2022/01/22 11:40:27;;;;;;;9.93;3.70;;;4.80;99.90;;;;;;4851401;29;20097;-69
2022/01/22 11:42:56;;;;;;;12.52;3.97;;;4.60;99.90;;;;;;4861522;29;20041;-68
2022/01/22 11:45:22;;;;;;;18.35;6.40;;;4.70;99.90;;;;;;4862430;29;20037;-68
2022/01/22 11:47:47;;;;;;;29.65;11.65;;;4.80;99.90;;;;;;4864716;29;20379;-69
2022/01/22 11:50:15;;;;;;;28.83;11.18;;;4.80;99.90;;;;;;4862732;29;20064;-69
2022/01/22 11:52:41;;;;;;;16.08;4.75;;;4.80;99.90;;;;;;4849928;29;20037;-68
2022/01/22 11:55:07;;;;;;;18.50;6.43;;;4.80;99.90;;;;;;4860698;29;20466;-68
2022/01/22 11:57:33;;;;;;;12.15;4.70;;;4.90;99.90;;;;;;4858614;29;20049;-68
2022/01/22 11:59:58;;;;;;;16.77;6.90;;;4.90;99.90;;;;;;4862352;29;20077;-68
2022/01/22 12:02:24;;;;;;;23.75;9.95;;;4.80;99.90;;;;;;4863866;29;20048;-68
2022/01/22 12:04:50;;;;;;;20.70;7.95;;;4.80;99.90;;;;;;4863574;29;20033;-68
2022/01/22 12:07:15;;;;;;;15.43;6.03;;;4.90;99.90;;;;;;4861792;29;20041;-68
2022/01/22 12:14:56;;;;;;;12.65;5.03;;;4.80;99.90;;;;;;4864023;29;20392;-68
2022/01/22 12:17:28;;;;;;;12.82;3.50;;;4.80;99.90;;;;;;4863221;29;20029;-68
2022/01/22 12:22:19;;;;;;;12.90;5.30;;;4.90;99.90;;;;;;4861965;29;20033;-68
2022/01/22 12:24:45;;;;;;;30.60;11.60;;;4.80;99.90;;;;;;4861770;29;20268;-69
2022/01/22 12:27:10;;;;;;;15.13;4.90;;;5.00;99.90;;;;;;4850792;29;20538;-68
2022/01/22 12:29:36;;;;;;;10.32;4.97;;;5.00;99.90;;;;;;4852348;29;20047;-68
2022/01/22 12:32:01;;;;;;;17.65;4.78;;;5.00;99.90;;;;;;4868149;29;20041;-68
2022/01/22 12:34:27;;;;;;;13.32;4.78;;;5.00;99.90;;;;;;4864662;29;20038;-68
2022/01/22 12:36:54;;;;;;;15.77;4.47;;;5.00;99.90;;;;;;4834887;29;20670;-69
2022/01/22 12:39:28;;;;;;;10.65;4.93;;;5.00;99.90;;;;;;4850653;29;20553;-68
2022/01/22 12:41:57;;;;;;;13.20;4.10;;;4.90;99.90;;;;;;4866580;29;20036;-69
2022/01/22 12:46:48;;;;;;;13.48;4.95;;;4.80;99.90;;;;;;4853621;29;20033;-68
2022/01/22 12:49:14;;;;;;;12.77;4.80;;;4.70;99.90;;;;;;4863613;29;20044;-67
2022/01/22 12:51:39;;;;;;;11.63;4.72;;;4.70;99.90;;;;;;4853828;29;20954;-68
2022/01/22 12:54:05;;;;;;;12.35;5.38;;;4.70;99.90;;;;;;4864321;29;20048;-68
2022/01/22 12:58:56;;;;;;;16.73;5.47;;;5.10;99.90;;;;;;4852766;29;20574;-68
2022/01/22 13:01:22;;;;;;;12.73;4.88;;;5.20;99.90;;;;;;4860687;29;20035;-69
2022/01/22 13:03:47;;;;;;;13.10;5.15;;;5.20;99.90;;;;;;4848465;29;20037;-68
2022/01/22 13:06:13;;;;;;;12.68;5.15;;;5.30;99.90;;;;;;4860575;29;20068;-68
2022/01/22 13:09:01;;;;;;;12.43;5.05;;;5.60;99.90;;;;;;4868497;29;20045;-69
2022/01/22 13:11:44;;;;;;;8.65;3.28;;;6.00;99.90;;;;;;4844449;29;20033;-69
2022/01/22 13:14:10;;;;;;;11.45;4.30;;;6.10;99.90;;;;;;4847578;29;20044;-69
2022/01/22 13:16:35;;;;;;;11.95;5.00;;;6.10;99.90;;;;;;4838894;29;20037;-69
2022/01/22 13:19:01;;;;;;;14.07;4.70;;;5.90;99.90;;;;;;4862195;29;20025;-68
2022/01/22 13:21:26;;;;;;;11.10;4.57;;;5.80;99.90;;;;;;4863261;29;20841;-68
2022/01/22 13:23:52;;;;;;;13.68;4.97;;;5.80;99.90;;;;;;4856420;29;20068;-68
2022/01/22 13:26:17;;;;;;;13.75;5.20;;;6.00;99.90;;;;;;4849935;29;20041;-69
2022/01/22 13:28:43;;;;;;;14.90;5.35;;;5.80;99.90;;;;;;4868831;29;20033;-69
2022/01/22 13:31:09;;;;;;;13.95;4.60;;;5.70;99.90;;;;;;4851377;29;20033;-69
2022/01/22 13:33:53;;;;;;;11.00;4.22;;;5.60;99.90;;;;;;4853255;29;20044;-68
2022/01/22 13:36:45;;;;;;;9.20;4.03;;;5.70;99.90;;;;;;4843981;29;20494;-68
2022/01/22 13:49:42;;;;;;;11.73;4.07;;;6.60;99.90;;;;;;4864365;29;20059;-69
2022/01/22 13:52:07;;;;;;;9.10;3.85;;;6.60;99.90;;;;;;4852276;29;20486;-69
2022/01/22 13:54:33;;;;;;;10.55;4.40;;;6.30;99.90;;;;;;4877486;29;20839;-69
2022/01/22 13:57:00;;;;;;;9.05;3.78;;;6.00;99.90;;;;;;4852742;29;20037;-69
2022/01/22 13:59:25;;;;;;;13.70;3.90;;;5.90;99.90;;;;;;4863001;29;20038;-69
2022/01/22 14:04:16;;;;;;;10.40;4.57;;;5.80;99.90;;;;;;4862539;29;20038;-68
2022/01/22 14:06:42;;;;;;;13.75;5.82;;;5.90;99.90;;;;;;4851521;29;20128;-69
2022/01/22 14:09:07;;;;;;;13.30;6.53;;;5.90;99.90;;;;;;4847178;29;20124;-68
2022/01/22 14:11:33;;;;;;;21.13;6.40;;;5.90;99.90;;;;;;4866601;29;20641;-69
2022/01/22 14:13:58;;;;;;;23.02;7.55;;;5.80;99.90;;;;;;4851697;29;20035;-71
2022/01/22 14:16:24;;;;;;;23.92;9.85;;;5.80;99.90;;;;;;4850749;29;20041;-69
2022/01/22 14:18:50;;;;;;;27.52;10.98;;;5.70;99.90;;;;;;4845220;29;20037;-68
2022/01/22 14:21:16;;;;;;;20.67;9.13;;;5.60;99.90;;;;;;4852684;29;20076;-68
2022/01/22 14:23:41;;;;;;;25.50;11.77;;;5.40;99.90;;;;;;4852656;29;20037;-70
2022/01/22 14:26:08;;;;;;;30.52;12.95;;;5.40;99.90;;;;;;4851896;29;20039;-68
2022/01/22 14:28:33;;;;;;;24.35;11.02;;;5.40;99.90;;;;;;4852386;29;20565;-68
2022/01/22 14:30:59;;;;;;;23.75;11.57;;;5.30;99.90;;;;;;4849575;29;20037;-69
2022/01/22 14:33:24;;;;;;;22.13;9.50;;;5.30;99.90;;;;;;4854466;29;20045;-68
2022/01/22 14:35:50;;;;;;;19.02;7.93;;;5.20;99.90;;;;;;4870236;29;20037;-69
2022/01/22 14:38:15;;;;;;;21.27;8.00;;;5.10;99.90;;;;;;4865256;29;20045;-69
2022/01/22 14:46:10;;;;;;;19.98;11.40;;;4.80;99.90;;;;;;4849094;29;20852;-68
2022/01/22 14:48:35;;;;;;;23.42;9.98;;;4.70;99.90;;;;;;4850183;29;20131;-69
2022/01/22 14:51:00;;;;;;;17.63;7.95;;;4.70;99.90;;;;;;4846138;29;20045;-68
2022/01/22 14:53:26;;;;;;;17.38;7.85;;;4.60;99.90;;;;;;4834841;29;20041;-68
2022/01/22 14:55:52;;;;;;;15.60;6.32;;;4.60;99.90;;;;;;4863850;29;20037;-69
2022/01/22 14:58:17;;;;;;;17.95;7.07;;;4.50;99.90;;;;;;4833268;29;20044;-69
2022/01/22 15:00:43;;;;;;;14.02;7.18;;;4.40;99.90;;;;;;4861551;29;20660;-68
2022/01/22 15:03:08;;;;;;;16.00;8.40;;;4.30;99.90;;;;;;4867949;29;20928;-68
2022/01/22 15:05:33;;;;;;;16.60;7.43;;;4.30;99.90;;;;;;4850563;29;20030;-68
2022/01/22 15:07:59;;;;;;;15.30;8.10;;;4.30;99.90;;;;;;4847775;29;20497;-70